メインページ
METAR-TAF:

METAR-TAF

空港 :

Dawson Creek, ブリティッシュコロンビア州, カナダ

緯度: 55-45N, 経度: 120-11W, 海抜: 655m

現時点の気象観測

当レポートは21分前の02:35(UTC)に作成
南/南西の風 11kt
気温 19°C
湿度 49%
気圧 1008 hPa
視程: 14.5km
晴天

METAR: CYDQ 180235Z AUTO 20011KT 9SM CLR 19/08 A2977 RMK LTNG DIST E SE SLP085 DENSITY ALT 3300FT

時間: 19:56 (02:56 UTC)

予報

当レポートは2時間18分前の00:38(UTC)に作成
予報は18日の 01時(UTC)から 18日の 05時(UTC)まで有効
北西の風 8kt
視程: 10km
高度7000ftの雲はほとんどない
18日の 01時(UTC)から 18日の 05時(UTC)まで一時的に
視程: 10km
高度7000ftの千切れ雲あり
弱いにわか雨
18日の 02時(UTC)から 18日の 04時(UTC)まで徐々に
西/南西の風 8kt

TAF: CYDQ 180038Z 1801/1805 31008KT P6SM FEW070 TEMPO 1801/1805 P6SM -SHRA BKN070 BECMG 1802/1804 24008KT RMK FCST BASED ON AUTO OBS. NXT FCST WILL BE ISSUED AT 181245Z

4,000以上の空港の気象観測と天気予報(METAR報とTAF報)

利用可能な観測所は地図上に黄色い丸と赤い丸で示す。

丸の上にカーソルを重ねると観測所名を参照できる。

次にクリックすると気象観測と天気予報を参照できる。

マップの切り替え:黒色「×」印の緑ボタンをクリックして拡大、「-」印の緑ボタンをクリックして縮小、緑色の三角印をクリックして隣りの地図に切り替え


METAR-TAF: